MST,Max TemperatureF,Mean TemperatureF,Min TemperatureF,Max Dew PointF,MeanDew PointF,Min DewpointF,Max Humidity, Mean Humidity, Min Humidity, Max Sea Level PressureIn, Mean Sea Level PressureIn, Min Sea Level PressureIn, Max VisibilityMiles, Mean VisibilityMiles, Min VisibilityMiles, Max Wind SpeedMPH, Mean Wind SpeedMPH, Max Gust SpeedMPH,PrecipitationIn, CloudCover, Events, WindDirDegrees
2013-11-1,57,46,33,21,17,9,52,36,15,30.22,30.02,29.84,10,10,10,23,15,33,0.00,0,,342
2013-11-2,62,44,27,25,20,15,75,46,16,30.28,30.13,29.94,10,10,10,28,11,34,0.00,0,,202
2013-11-3,60,50,41,32,24,17,63,39,26,29.86,29.73,29.60,10,10,10,37,19,47,0.00,1,,218
2013-11-4,54,43,32,32,24,18,76,49,28,29.94,29.81,29.66,10,10,10,23,9,31,0.00,2,Rain,137
2013-11-5,53,38,24,37,28,18,93,68,30,30.12,29.89,29.76,10,10,6,24,9,32,0.10,2,Rain,222
2013-11-6,54,36,19,22,14,4,89,49,14,30.35,30.26,30.14,10,10,10,13,4,,0.00,0,,304
2013-11-7,57,42,26,17,15,13,61,37,18,30.43,30.30,30.14,10,10,10,21,10,28,0.00,0,,162
2013-11-8,69,50,32,16,11,5,44,25,10,30.11,29.96,29.81,10,10,10,23,10,28,0.00,0,,217
2013-11-9,64,50,35,26,16,12,55,31,14,30.17,30.03,29.85,10,10,10,14,7,,0.00,0,,94
2013-11-10,68,48,28,25,18,11,72,36,12,30.26,30.16,30.04,10,10,10,22,7,28,0.00,0,,221
2013-11-11,66,50,32,23,14,6,61,29,10,30.35,30.18,30.06,10,10,10,14,6,21,0.00,0,,39
2013-11-12,48,37,26,32,27,25,100,82,42,30.70,30.57,30.35,10,7,0,15,8,,0.00,3,Fog,112
2013-11-13,61,42,24,32,27,8,100,76,12,30.55,30.35,29.95,10,6,0,26,11,32,0.00,2,Fog,201
2013-11-14,55,44,32,24,19,15,64,41,23,30.09,29.92,29.84,10,10,10,25,7,32,0.00,1,,151
2013-11-15,57,45,33,37,25,19,83,51,23,29.83,29.69,29.56,10,10,10,26,15,34,0.00,1,Rain,216
2013-11-16,51,44,37,37,29,22,93,54,35,29.57,29.52,29.46,10,10,10,44,23,61,0.00,1,Rain,245
2013-11-17,59,47,34,24,19,13,50,36,20,30.04,29.79,29.52,10,10,10,30,15,43,0.00,0,,297
2013-11-18,46,35,24,25,21,15,75,57,38,30.20,30.13,30.02,10,10,10,13,7,,0.00,0,,145
2013-11-19,61,44,28,29,22,14,64,40,21,30.10,29.85,29.67,10,10,10,25,10,33,0.00,0,,217
2013-11-20,48,39,30,33,27,21,83,60,42,29.84,29.78,29.70,10,10,10,18,10,,0.00,3,,184
2013-11-21,50,36,23,38,29,22,96,80,52,30.28,30.06,29.78,10,8,0,18,10,,0.09,5,Fog-Rain-Snow,145
2013-11-22,24,20,16,20,17,14,92,85,74,30.51,30.42,30.25,10,7,0,16,13,,0.17,8,Fog-Snow,53
2013-11-23,23,20,17,22,19,15,96,92,85,30.61,30.48,30.39,10,3,0,18,12,,0.12,8,Fog-Rain-Snow,53
2013-11-24,19,14,10,14,13,8,93,87,81,30.49,30.27,29.99,10,4,0,23,7,,0.17,6,Fog-Snow,171
2013-11-25,33,25,17,24,18,12,92,74,63,30.33,30.15,29.98,10,10,6,39,13,48,0.00,6,,360
2013-11-26,34,24,15,23,16,9,77,68,54,30.48,30.40,30.32,10,10,10,12,7,,0.00,1,,35
2013-11-27,41,30,18,25,19,14,84,67,41,30.38,30.24,30.12,10,10,10,8,4,,0.00,0,,337
2013-11-28,43,34,25,25,20,14,85,61,45,30.30,30.20,30.09,10,10,10,13,7,,0.00,0,,51
2013-11-29,46,35,24,29,22,16,84,61,50,30.28,30.22,30.13,10,10,10,16,9,,0.00,0,,58
2013-11-30,50,38,26,31,23,17,75,54,36,30.25,30.16,30.08,10,10,10,8,3,,0.00,0,,55